GMMX Airport Informations

Runway Information
Runway 10 Length 10170 ft width 148 ft
Elevation 1506 ft Threshold 918 ft Heading 96
Runway 28 Length 10170 ft Width 148 ft
Elevation 1545 ft Threshold ft Heading 276
Airport Frequencies
Type APP Name MARRAKECH Frequency 119.7 MHZ
Type TWR Name MARRAKECH Frequency 118.7 MHZ
Airport Navaids
Type NDB Name Marrakech Frequency 267 KHZ
Type VOR-DME Name Marrakech Frequency 113300 KHZ
Airport Weather Information & NOTAM
ADDS - METARS form results

(1303 UTC 14 August 2022)
Data provider http://aviationweather.gov/metar/data/
 
METAR text: GMMX 141300Z 29008KT 230V350 8000 FEW033 SCT100 32/19 Q1015 NOSIG
Conditions at: GMMX (MARRAKECH/MENARA, MA) observed 1300 UTC 14 August 2022
Temperature: 32.0°C (90°F)
Dewpoint: 19.0°C (66°F) [RH = 46%]
Pressure (altimeter): 29.97 inches Hg (1015.0 mb)
Winds: from the WNW (290 degrees) at 9 MPH (8 knots; 4.1 m/s)
Visibility: 5 miles ( 8 km)
Ceiling: at least 12,000 feet AGL
Clouds: few clouds at 3300 feet AGL
scattered clouds at 10000 feet AGL
Weather: no significant weather observed at this time

METAR text: GMMX 141230Z 30006KT 240V010 8000 SCT033 SCT100 31/19 Q1015 NOSIG
Conditions at: GMMX (MARRAKECH/MENARA, MA) observed 1230 UTC 14 August 2022
Temperature: 31.0°C (88°F)
Dewpoint: 19.0°C (66°F) [RH = 49%]
Pressure (altimeter): 29.97 inches Hg (1015.0 mb)
Winds: from the WNW (300 degrees) at 7 MPH (6 knots; 3.1 m/s)
Visibility: 5 miles ( 8 km)
Ceiling: at least 12,000 feet AGL
Clouds: scattered clouds at 3300 feet AGL
scattered clouds at 10000 feet AGL
Weather: no significant weather observed at this time

Forecast for: GMMX (MARRAKECH/MENARA, MA)
Text: TAF GMMX 141100Z 1412/1518 28006KT 8000 SCT100
Forecast period: 1200 UTC 14 August 2022 to 1800 UTC 15 August 2022
Forecast type: FROM: standard forecast or significant change
Winds: from the W (280 degrees) at 7 MPH (6 knots; 3.1 m/s)
Visibility: 5 miles (8 km)
Ceiling: at least 12,000 feet AGL
Clouds: scattered clouds at 10000 feet AGL
Weather: no significant weather forecast for this period
Text: TEMPO 1415/1421 34020KT SCT023 FEW033TCU
Forecast period: 1500 to 2100 UTC 14 August 2022
Forecast type: TEMPORARY: The following changes expected for less than half the time period
Winds: from the NNW (340 degrees) at 23 MPH (20 knots; 10.3 m/s)
Visibility: missing
Ceiling: at least 12,000 feet AGL
Clouds: scattered clouds at 2300 feet AGL
few clouds at 3300 feet AGL
Weather: no significant weather forecast for this period